Time;durP1;ratioP1;P1;durP2;ratioP2;P2;SDS_P1;SDS_P2;PMS_P1;PMS_P2;Temp;Humidity;BMP_temperature;BMP_pressure;BME280_temperature;BME280_humidity;BME280_pressure;Samples;Min_cycle;Max_cycle;Signal;HPM_P1;HPM_P2
2022/10/24 00:01:40;;;;;;;39.17;25.98;;;;;;;-144.47;100.00;61586.06;4972633;28;20034;-78
2022/10/24 00:04:08;;;;;;;36.47;26.75;;;;;;;-144.47;100.00;61586.06;4972728;28;20035;-79
2022/10/24 00:06:34;;;;;;;40.35;27.00;;;;;;;-144.47;100.00;61586.06;4972626;28;20506;-78
2022/10/24 00:08:59;;;;;;;34.45;25.60;;;;;;;-144.47;100.00;61586.06;4973379;28;20023;-78
2022/10/24 00:11:27;;;;;;;37.92;25.77;;;;;;;-144.47;100.00;61586.06;4968786;28;20055;-79
2022/10/24 00:13:53;;;;;;;44.50;25.33;;;;;;;-144.47;100.00;61586.06;4972751;28;20587;-79
2022/10/24 00:16:19;;;;;;;37.90;26.63;;;;;;;-144.47;100.00;61586.06;4972500;28;20122;-79
2022/10/24 00:18:45;;;;;;;33.95;26.40;;;;;;;-144.47;100.00;61586.06;4972690;28;20122;-79
2022/10/24 00:21:11;;;;;;;35.50;26.17;;;;;;;-144.47;100.00;61586.06;4972392;28;20390;-78
2022/10/24 00:23:37;;;;;;;40.80;26.90;;;;;;;-144.47;100.00;61586.06;4972575;28;20574;-78
2022/10/24 00:26:04;;;;;;;37.25;27.33;;;;;;;-144.47;100.00;61586.06;4972696;28;20031;-78
2022/10/24 00:28:31;;;;;;;34.10;25.83;;;;;;;-144.47;100.00;61586.06;4972286;28;20057;-78
2022/10/24 00:30:58;;;;;;;37.30;26.38;;;;;;;-144.47;100.00;61586.06;4970062;28;20045;-77
2022/10/24 00:33:24;;;;;;;34.97;26.33;;;;;;;-144.47;100.00;61586.06;4959659;28;20034;-77
2022/10/24 00:35:50;;;;;;;35.03;26.17;;;;;;;-144.47;100.00;61586.06;4960206;28;20023;-79
2022/10/24 00:38:17;;;;;;;38.63;27.90;;;;;;;-144.47;100.00;61586.06;4972631;28;20125;-78
2022/10/24 00:40:42;;;;;;;38.45;27.05;;;;;;;-144.47;100.00;61586.06;4973412;28;20162;-78
2022/10/24 00:43:23;;;;;;;38.03;27.10;;;;;;;-144.47;100.00;61586.06;4971586;28;20043;-77
2022/10/24 00:45:51;;;;;;;37.72;26.35;;;;;;;-144.47;100.00;61586.06;4972387;28;20047;-78
2022/10/24 00:48:37;;;;;;;38.40;27.05;;;;;;;-144.47;100.00;61586.06;4971971;28;20060;-79
2022/10/24 00:51:25;;;;;;;36.53;26.77;;;;;;;-144.47;100.00;61586.06;4969251;28;20081;-80
2022/10/24 00:53:57;;;;;;;36.10;25.88;;;;;;;-144.47;100.00;61586.06;4972084;28;20039;-77
2022/10/24 00:56:29;;;;;;;38.33;27.13;;;;;;;-144.47;100.00;61586.06;4972049;28;20081;-78
2022/10/24 00:58:58;;;;;;;41.65;27.02;;;;;;;-144.47;100.00;61586.06;4944721;28;20119;-80
2022/10/24 01:01:25;;;;;;;38.20;26.95;;;;;;;-144.47;100.00;61586.06;4962100;28;20035;-80
2022/10/24 01:03:50;;;;;;;40.10;27.80;;;;;;;-144.47;100.00;61586.06;4971669;28;20043;-80
2022/10/24 01:06:54;;;;;;;39.03;27.83;;;;;;;-144.47;100.00;61586.06;4971751;28;20030;-78
2022/10/24 01:09:50;;;;;;;43.42;27.83;;;;;;;-144.47;100.00;61586.06;4973050;28;20688;-80
2022/10/24 01:12:19;;;;;;;43.63;28.15;;;;;;;-144.47;100.00;61586.06;4973954;28;20094;-78
2022/10/24 01:14:49;;;;;;;44.95;29.60;;;;;;;-144.47;100.00;61586.06;4961993;28;20039;-78
2022/10/24 01:17:39;;;;;;;41.45;28.55;;;;;;;-144.47;100.00;61586.06;4974896;28;20062;-78
2022/10/24 01:20:32;;;;;;;41.93;28.33;;;;;;;-144.47;100.00;61586.06;4972581;28;20054;-79
2022/10/24 01:23:30;;;;;;;44.15;29.20;;;;;;;-144.47;100.00;61586.06;4971880;28;20087;-78
2022/10/24 01:26:21;;;;;;;39.58;27.77;;;;;;;-144.47;100.00;61586.06;4973607;28;20031;-78
2022/10/24 01:29:09;;;;;;;42.70;28.67;;;;;;;-144.47;100.00;61586.06;4973957;28;20066;-79
2022/10/24 01:31:43;;;;;;;43.90;28.55;;;;;;;-144.47;100.00;61586.06;4972075;28;20387;-79
2022/10/24 01:34:19;;;;;;;43.03;27.80;;;;;;;-144.47;100.00;61586.06;4974850;28;20138;-79
2022/10/24 01:36:57;;;;;;;45.13;28.52;;;;;;;-144.47;100.00;61586.06;4975170;28;20487;-78
2022/10/24 01:39:28;;;;;;;40.10;28.02;;;;;;;-144.47;100.00;61586.06;4974467;28;20042;-78
2022/10/24 01:41:56;;;;;;;39.92;27.77;;;;;;;-144.47;100.00;61586.06;4974876;28;20023;-78
2022/10/24 01:44:28;;;;;;;39.67;27.65;;;;;;;-144.47;100.00;61586.06;4974504;28;20045;-79
2022/10/24 01:46:59;;;;;;;45.67;30.08;;;;;;;-144.47;100.00;61586.06;4974623;28;20029;-80
2022/10/24 01:49:30;;;;;;;44.90;28.20;;;;;;;-144.47;100.00;61586.06;4974485;28;20078;-78
2022/10/24 01:52:01;;;;;;;42.85;28.23;;;;;;;-144.47;100.00;61586.06;4972886;28;20057;-79
2022/10/24 01:54:28;;;;;;;44.85;28.08;;;;;;;-144.47;100.00;61586.06;4970692;28;20094;-79
2022/10/24 01:56:53;;;;;;;40.80;27.98;;;;;;;-144.47;100.00;61586.06;4974902;28;20031;-78
2022/10/24 01:59:26;;;;;;;48.30;30.95;;;;;;;-144.47;100.00;61586.06;4974435;28;20553;-80
2022/10/24 02:02:05;;;;;;;40.20;28.67;;;;;;;-144.47;100.00;61586.06;4974175;28;20115;-80
2022/10/24 02:04:35;;;;;;;50.05;29.80;;;;;;;-144.47;100.00;61586.06;4971219;28;20037;-79
2022/10/24 02:07:05;;;;;;;47.65;29.77;;;;;;;-144.47;100.00;61586.06;4974688;28;20034;-79
2022/10/24 02:09:34;;;;;;;49.45;29.17;;;;;;;-144.47;100.00;61586.06;4974292;28;20102;-79
2022/10/24 02:12:00;;;;;;;44.90;29.63;;;;;;;-144.47;100.00;61586.06;4962276;28;20054;-79
2022/10/24 02:14:35;;;;;;;46.60;29.83;;;;;;;-144.47;100.00;61586.06;4970301;28;20058;-80
2022/10/24 02:17:02;;;;;;;45.42;28.95;;;;;;;-144.47;100.00;61586.06;4957317;28;20128;-80
2022/10/24 02:19:30;;;;;;;48.15;30.40;;;;;;;-144.47;100.00;61586.06;4973281;28;20035;-79
2022/10/24 02:22:28;;;;;;;46.20;29.17;;;;;;;-144.47;100.00;61586.06;4956878;28;20550;-80
2022/10/24 02:25:06;;;;;;;45.33;29.70;;;;;;;-144.47;100.00;61586.06;4948048;28;20050;-79
2022/10/24 02:27:39;;;;;;;47.50;29.65;;;;;;;-144.47;100.00;61586.06;4971356;28;20038;-81
2022/10/24 02:30:11;;;;;;;44.67;31.50;;;;;;;-144.47;100.00;61586.06;4974164;28;20034;-81
2022/10/24 02:32:40;;;;;;;49.72;29.15;;;;;;;-144.47;100.00;61586.06;4973719;28;20059;-79
2022/10/24 02:35:08;;;;;;;43.10;30.45;;;;;;;-144.47;100.00;61586.06;4973617;28;20023;-79
2022/10/24 02:37:41;;;;;;;44.30;29.98;;;;;;;-144.47;100.00;61586.06;4973748;28;20031;-79
2022/10/24 02:40:10;;;;;;;44.78;30.67;;;;;;;-144.47;100.00;61586.06;4960377;28;20027;-79
2022/10/24 02:42:37;;;;;;;44.67;29.30;;;;;;;-144.47;100.00;61586.06;4973920;28;20058;-79
2022/10/24 02:45:04;;;;;;;47.65;30.67;;;;;;;-144.47;100.00;61586.06;4973850;28;20035;-79
2022/10/24 02:47:31;;;;;;;50.55;30.85;;;;;;;-144.47;100.00;61586.06;4973333;28;20038;-80
2022/10/24 02:49:56;;;;;;;45.33;30.20;;;;;;;-144.47;100.00;61586.06;4969752;28;20082;-79
2022/10/24 02:52:22;;;;;;;45.78;29.80;;;;;;;-144.47;100.00;61586.06;4943683;28;20046;-79
2022/10/24 02:54:49;;;;;;;45.70;30.27;;;;;;;-144.47;100.00;61586.06;4973444;28;20031;-78
2022/10/24 02:57:14;;;;;;;45.15;29.70;;;;;;;-144.47;100.00;61586.06;4973149;28;20037;-78
2022/10/24 02:59:40;;;;;;;51.33;30.90;;;;;;;-144.47;100.00;61586.06;4973616;28;20034;-80
2022/10/24 03:02:06;;;;;;;46.65;30.92;;;;;;;-144.47;100.00;61586.06;4973298;28;20035;-79
2022/10/24 03:04:31;;;;;;;41.92;29.90;;;;;;;-144.47;100.00;61586.06;4972963;28;20530;-79
2022/10/24 03:06:57;;;;;;;47.20;29.98;;;;;;;-144.47;100.00;61586.06;4973272;28;20074;-80
2022/10/24 03:09:23;;;;;;;49.08;30.88;;;;;;;-144.47;100.00;61586.06;4973117;28;20030;-78
2022/10/24 03:11:49;;;;;;;44.45;30.13;;;;;;;-144.47;100.00;61586.06;4973175;28;20066;-77
2022/10/24 03:14:15;;;;;;;50.38;31.25;;;;;;;-144.47;100.00;61586.06;4973013;28;20073;-78
2022/10/24 03:16:40;;;;;;;48.05;30.52;;;;;;;-144.47;100.00;61586.06;4973879;28;20543;-80
2022/10/24 03:19:06;;;;;;;45.95;31.15;;;;;;;-144.47;100.00;61586.06;4973276;28;20042;-79
2022/10/24 03:21:31;;;;;;;51.45;30.80;;;;;;;-144.47;100.00;61586.06;4972971;28;20031;-80
2022/10/24 03:23:57;;;;;;;45.00;31.73;;;;;;;-144.47;100.00;61586.06;4973169;28;20487;-79
2022/10/24 03:26:22;;;;;;;47.60;29.45;;;;;;;-144.47;100.00;61586.06;4972894;28;20737;-78
2022/10/24 03:28:48;;;;;;;50.78;31.15;;;;;;;-144.47;100.00;61586.06;4973468;28;20391;-79
2022/10/24 03:31:13;;;;;;;49.25;32.15;;;;;;;-144.47;100.00;61586.06;4971856;28;20551;-78
2022/10/24 03:33:39;;;;;;;47.20;29.42;;;;;;;-144.47;100.00;61586.06;4973075;28;20026;-79
2022/10/24 03:36:04;;;;;;;45.97;31.13;;;;;;;-144.47;100.00;61586.06;4972340;28;20031;-78
2022/10/24 03:38:30;;;;;;;48.50;30.65;;;;;;;-144.47;100.00;61586.06;4972641;28;20026;-79
2022/10/24 03:40:55;;;;;;;49.42;30.52;;;;;;;-144.47;100.00;61586.06;4959586;28;20093;-80
2022/10/24 03:43:21;;;;;;;48.67;30.85;;;;;;;-144.47;100.00;61586.06;4972490;28;20035;-79
2022/10/24 03:45:46;;;;;;;47.22;31.13;;;;;;;-144.47;100.00;61586.06;4972988;28;20031;-78
2022/10/24 03:48:12;;;;;;;45.90;30.85;;;;;;;-144.47;100.00;61586.06;4959539;28;20550;-79
2022/10/24 03:50:39;;;;;;;47.30;30.33;;;;;;;-144.47;100.00;61586.06;4972341;28;20042;-80
2022/10/24 03:53:05;;;;;;;49.63;30.83;;;;;;;-144.47;100.00;61586.06;4972633;28;20065;-81
2022/10/24 03:55:30;;;;;;;46.38;28.58;;;;;;;-144.47;100.00;61586.06;4972171;28;20062;-80
2022/10/24 03:57:56;;;;;;;49.58;32.30;;;;;;;-144.47;100.00;61586.06;4955923;28;20043;-81
2022/10/24 04:00:21;;;;;;;45.88;30.30;;;;;;;-144.47;100.00;61586.06;4956857;28;20062;-80
2022/10/24 04:02:50;;;;;;;49.67;29.95;;;;;;;-144.47;100.00;61586.06;4972633;28;20027;-80
2022/10/24 04:05:15;;;;;;;46.75;30.88;;;;;;;-144.47;100.00;61586.06;4972254;28;20480;-81
2022/10/24 04:07:40;;;;;;;45.80;29.75;;;;;;;-144.47;100.00;61586.06;4972218;28;20031;-80
2022/10/24 04:10:06;;;;;;;43.60;29.33;;;;;;;-144.47;100.00;61586.06;4971938;28;20468;-81
2022/10/24 04:12:32;;;;;;;42.47;29.55;;;;;;;-144.47;100.00;61586.06;4972208;28;20034;-81
2022/10/24 04:14:57;;;;;;;45.85;30.27;;;;;;;-144.47;100.00;61586.06;4972355;28;20039;-80
2022/10/24 04:17:23;;;;;;;45.47;30.63;;;;;;;-144.47;100.00;61586.06;4972037;28;20034;-80
2022/10/24 04:19:48;;;;;;;47.65;31.42;;;;;;;-144.47;100.00;61586.06;4972470;28;20035;-80
2022/10/24 04:22:14;;;;;;;46.83;30.80;;;;;;;-144.47;100.00;61586.06;4971593;28;20038;-81
2022/10/24 04:24:39;;;;;;;46.60;30.83;;;;;;;-144.47;100.00;61586.06;4958648;28;20129;-80
2022/10/24 04:27:06;;;;;;;48.92;31.00;;;;;;;-144.47;100.00;61586.06;4972046;28;20035;-80
2022/10/24 04:29:32;;;;;;;44.70;30.00;;;;;;;-144.47;100.00;61586.06;4972181;28;20031;-81
2022/10/24 04:31:57;;;;;;;44.58;30.38;;;;;;;-144.47;100.00;61586.06;4972369;28;20038;-81
2022/10/24 04:34:23;;;;;;;47.75;29.30;;;;;;;-144.47;100.00;61586.06;4971883;28;20118;-80
2022/10/24 04:36:49;;;;;;;46.35;29.88;;;;;;;-144.47;100.00;61586.06;4972405;28;20027;-80
2022/10/24 04:39:15;;;;;;;45.80;30.95;;;;;;;-144.47;100.00;61586.06;4971112;28;20391;-82
2022/10/24 04:41:40;;;;;;;43.97;29.73;;;;;;;-144.47;100.00;61586.06;4971897;28;20038;-78
2022/10/24 04:44:05;;;;;;;45.20;30.42;;;;;;;-144.47;100.00;61586.06;4975567;28;20062;-79
2022/10/24 04:46:31;;;;;;;45.97;29.73;;;;;;;-144.47;100.00;61586.06;4976375;28;20031;-78
2022/10/24 04:48:57;;;;;;;41.00;29.48;;;;;;;-144.47;100.00;61586.06;4976058;28;20460;-80
2022/10/24 04:51:22;;;;;;;48.05;30.00;;;;;;;-144.47;100.00;61586.06;4975364;28;20035;-79
2022/10/24 04:53:48;;;;;;;45.22;30.73;;;;;;;-144.47;100.00;61586.06;4975269;28;20376;-79
2022/10/24 04:56:13;;;;;;;46.60;30.60;;;;;;;-144.47;100.00;61586.06;4962876;28;20027;-80
2022/10/24 04:58:39;;;;;;;45.70;31.15;;;;;;;-144.47;100.00;61586.06;4975500;28;20035;-79
2022/10/24 05:01:04;;;;;;;48.15;31.27;;;;;;;-144.47;100.00;61586.06;4975401;28;20031;-76
2022/10/24 05:03:30;;;;;;;47.67;29.08;;;;;;;-144.47;100.00;61586.06;4975229;28;20047;-75
2022/10/24 05:05:55;;;;;;;47.60;30.35;;;;;;;-144.47;100.00;61586.06;4975598;28;20233;-76
2022/10/24 05:08:21;;;;;;;43.10;30.02;;;;;;;-144.47;100.00;61586.06;4974871;28;20050;-77
2022/10/24 05:10:46;;;;;;;46.70;30.77;;;;;;;-144.47;100.00;61586.06;4974458;28;20042;-77
2022/10/24 05:13:13;;;;;;;46.42;28.83;;;;;;;-144.47;100.00;61586.06;4974867;28;20396;-78
2022/10/24 05:15:40;;;;;;;42.33;29.48;;;;;;;-144.47;100.00;61586.06;4975079;28;20077;-77
2022/10/24 05:18:05;;;;;;;49.97;29.63;;;;;;;-144.47;100.00;61586.06;4975026;28;20035;-78
2022/10/24 05:20:31;;;;;;;44.95;30.17;;;;;;;-144.47;100.00;61586.06;4974981;28;20045;-78
2022/10/24 05:22:56;;;;;;;42.25;28.95;;;;;;;-144.47;100.00;61586.06;4970454;28;20035;-76
2022/10/24 05:25:22;;;;;;;44.88;30.33;;;;;;;-144.47;100.00;61586.06;4974221;28;20063;-78
2022/10/24 05:27:47;;;;;;;44.00;28.55;;;;;;;-144.47;100.00;61586.06;4973205;28;20470;-78
2022/10/24 05:30:13;;;;;;;43.40;30.08;;;;;;;-144.47;100.00;61586.06;4972659;28;20030;-77
2022/10/24 05:32:38;;;;;;;51.25;29.58;;;;;;;-144.47;100.00;61586.06;4975004;28;20035;-76
2022/10/24 05:35:04;;;;;;;42.50;29.52;;;;;;;-144.47;100.00;61586.06;4973908;28;20039;-75
2022/10/24 05:37:30;;;;;;;48.63;29.50;;;;;;;-144.47;100.00;61586.06;4974937;28;20109;-76
2022/10/24 05:39:55;;;;;;;43.65;29.58;;;;;;;-144.47;100.00;61586.06;4973954;28;20475;-77
2022/10/24 05:42:21;;;;;;;45.53;29.73;;;;;;;-144.47;100.00;61586.06;4974625;28;20081;-76
2022/10/24 05:44:48;;;;;;;43.90;29.92;;;;;;;-144.47;100.00;61586.06;4974181;28;20042;-76
2022/10/24 05:47:13;;;;;;;48.03;32.67;;;;;;;-144.47;100.00;61586.06;4973571;28;20027;-77
2022/10/24 05:49:39;;;;;;;48.22;30.20;;;;;;;-144.47;100.00;61586.06;4974643;28;20506;-75
2022/10/24 05:52:04;;;;;;;45.92;30.27;;;;;;;-144.47;100.00;61586.06;4956150;28;20070;-76
2022/10/24 05:54:30;;;;;;;45.15;30.35;;;;;;;-144.47;100.00;61586.06;4973960;28;20454;-77
2022/10/24 05:56:55;;;;;;;46.55;29.80;;;;;;;-144.47;100.00;61586.06;4974242;28;20543;-80
2022/10/24 05:59:21;;;;;;;46.80;30.63;;;;;;;-144.47;100.00;61586.06;4974255;28;20039;-80
2022/10/24 06:01:46;;;;;;;43.33;29.38;;;;;;;-144.47;100.00;61586.06;4974506;28;20023;-78
2022/10/24 06:04:12;;;;;;;46.38;30.02;;;;;;;-144.47;100.00;61586.06;4974172;28;20429;-79
2022/10/24 06:06:42;;;;;;;47.42;31.23;;;;;;;-144.47;100.00;61586.06;4974279;28;20139;-78
2022/10/24 06:09:08;;;;;;;44.95;30.45;;;;;;;-144.47;100.00;61586.06;4961441;28;20100;-79
2022/10/24 06:11:33;;;;;;;48.10;30.25;;;;;;;-144.47;100.00;61586.06;4947897;28;20460;-79
2022/10/24 06:13:59;;;;;;;50.20;30.92;;;;;;;-144.47;100.00;61586.06;4952962;28;20110;-80
2022/10/24 06:16:26;;;;;;;46.95;30.65;;;;;;;-144.47;100.00;61586.06;4973483;28;20030;-79
2022/10/24 06:18:52;;;;;;;46.58;30.35;;;;;;;-144.47;100.00;61586.06;4974026;28;20101;-78
2022/10/24 06:21:18;;;;;;;49.70;31.63;;;;;;;-144.47;100.00;61586.06;4973313;28;20035;-79
2022/10/24 06:23:44;;;;;;;46.25;30.85;;;;;;;-144.47;100.00;61586.06;4973937;28;20128;-79
2022/10/24 06:26:10;;;;;;;45.55;30.58;;;;;;;-144.47;100.00;61586.06;4958308;28;20105;-78
2022/10/24 06:28:36;;;;;;;48.90;32.13;;;;;;;-144.47;100.00;61586.06;4973340;28;20061;-79
2022/10/24 06:31:02;;;;;;;47.15;30.15;;;;;;;-144.47;100.00;61586.06;4973844;28;20033;-79
2022/10/24 06:33:28;;;;;;;49.17;32.00;;;;;;;-144.47;100.00;61586.06;4973401;28;20034;-79
2022/10/24 06:35:54;;;;;;;47.03;30.60;;;;;;;-144.47;100.00;61586.06;4960099;28;20041;-78
2022/10/24 06:38:19;;;;;;;46.20;30.63;;;;;;;-144.47;100.00;61586.06;4973285;28;20125;-79
2022/10/24 06:40:44;;;;;;;48.03;31.08;;;;;;;-144.47;100.00;61586.06;4973777;28;20047;-79
2022/10/24 06:43:10;;;;;;;45.83;30.83;;;;;;;-144.47;100.00;61586.06;4972894;28;20035;-79
2022/10/24 06:45:39;;;;;;;46.80;30.52;;;;;;;-144.47;100.00;61586.06;4962247;28;20138;-79
2022/10/24 06:48:04;;;;;;;51.80;32.65;;;;;;;-144.47;100.00;61586.06;4946324;28;20031;-79
2022/10/24 06:50:30;;;;;;;51.88;31.90;;;;;;;-144.47;100.00;61586.06;4973130;28;20031;-79
2022/10/24 06:52:55;;;;;;;78.68;38.83;;;;;;;-144.47;100.00;61586.06;4962855;28;20133;-78
2022/10/24 06:55:21;;;;;;;76.20;37.78;;;;;;;-144.47;100.00;61586.06;4962963;28;20476;-80
2022/10/24 06:57:46;;;;;;;73.18;39.22;;;;;;;-144.47;100.00;61586.06;4973356;28;20031;-78
2022/10/24 07:00:13;;;;;;;73.05;36.33;;;;;;;-144.47;100.00;61586.06;4963119;28;20031;-80
2022/10/24 07:02:38;;;;;;;71.53;36.20;;;;;;;-144.47;100.00;61586.06;4955517;28;20059;-77
2022/10/24 07:05:07;;;;;;;69.43;37.40;;;;;;;-144.47;100.00;61586.06;4955608;28;20050;-78
2022/10/24 07:07:33;;;;;;;68.18;37.30;;;;;;;-144.47;100.00;61586.06;4929091;28;20146;-78
2022/10/24 07:09:58;;;;;;;73.57;38.78;;;;;;;-144.47;100.00;61586.06;4956418;28;20035;-77
2022/10/24 07:12:24;;;;;;;74.53;36.92;;;;;;;-144.47;100.00;61586.06;4955018;28;20126;-77
2022/10/24 07:14:50;;;;;;;67.70;35.00;;;;;;;-144.47;100.00;61586.06;4956315;28;20027;-76
2022/10/24 07:17:16;;;;;;;72.03;36.17;;;;;;;-144.47;100.00;61586.06;4954689;28;20039;-77
2022/10/24 07:19:42;;;;;;;63.97;36.22;;;;;;;-144.47;100.00;61586.06;4963145;28;20031;-79
2022/10/24 07:22:07;;;;;;;61.58;35.28;;;;;;;-144.47;100.00;61586.06;4955919;28;20538;-78
2022/10/24 07:24:33;;;;;;;62.00;34.58;;;;;;;-144.47;100.00;61586.06;4967154;28;20528;-77
2022/10/24 07:26:58;;;;;;;65.45;35.05;;;;;;;-144.47;100.00;61586.06;4958354;28;20035;-78
2022/10/24 07:29:24;;;;;;;63.22;35.28;;;;;;;-144.47;100.00;61586.06;4959499;28;20608;-78
2022/10/24 07:31:50;;;;;;;58.38;34.65;;;;;;;-144.47;100.00;61586.06;4958305;28;20046;-76
2022/10/24 07:34:16;;;;;;;62.55;33.40;;;;;;;-144.47;100.00;61586.06;4959199;28;20035;-79
2022/10/24 07:36:42;;;;;;;63.70;35.67;;;;;;;-144.47;100.00;61586.06;4958903;28;20031;-76
2022/10/24 07:39:07;;;;;;;57.10;33.40;;;;;;;-144.47;100.00;61586.06;4963306;28;20496;-79
2022/10/24 07:41:38;;;;;;;60.08;34.70;;;;;;;-144.47;100.00;61586.06;4972095;28;20038;-79
2022/10/24 07:44:03;;;;;;;60.40;34.88;;;;;;;-144.47;100.00;61586.06;4969198;28;20169;-79
2022/10/24 07:46:30;;;;;;;64.70;34.90;;;;;;;-144.47;100.00;61586.06;4971667;28;20039;-78
2022/10/24 07:48:55;;;;;;;69.65;35.33;;;;;;;-144.47;100.00;61586.06;4972418;28;20039;-79
2022/10/24 07:51:21;;;;;;;67.38;36.30;;;;;;;-144.47;100.00;61586.06;4971661;28;20062;-79
2022/10/24 07:53:48;;;;;;;70.97;37.03;;;;;;;-144.47;100.00;61586.06;4972352;28;20033;-79
2022/10/24 07:56:16;;;;;;;66.70;36.47;;;;;;;-144.47;100.00;61586.06;4959845;28;20038;-78
2022/10/24 07:58:43;;;;;;;80.70;38.25;;;;;;;-144.47;100.00;61586.06;4972237;28;20066;-79
2022/10/24 08:01:15;;;;;;;76.35;36.38;;;;;;;-144.47;100.00;61586.06;4971639;28;20107;-78
2022/10/24 08:03:40;;;;;;;78.90;37.13;;;;;;;-144.47;100.00;61586.06;4971985;28;20027;-79
2022/10/24 08:06:11;;;;;;;71.43;37.80;;;;;;;-144.47;100.00;61586.06;4971799;28;20027;-78
2022/10/24 08:08:37;;;;;;;74.60;37.20;;;;;;;-144.47;100.00;61586.06;4961317;28;20066;-78
2022/10/24 08:11:12;;;;;;;75.20;37.10;;;;;;;-144.47;100.00;61586.06;4972000;28;20070;-78
2022/10/24 08:13:38;;;;;;;82.20;40.03;;;;;;;-144.47;100.00;61586.06;4972125;28;20506;-78
2022/10/24 08:16:05;;;;;;;76.32;38.30;;;;;;;-144.47;100.00;61586.06;4972106;28;20046;-79
2022/10/24 08:18:32;;;;;;;74.50;37.33;;;;;;;-144.47;100.00;61586.06;4976917;28;20027;-78
2022/10/24 08:21:00;;;;;;;88.25;40.55;;;;;;;-144.47;100.00;61586.06;4978495;28;20035;-79
2022/10/24 08:23:26;;;;;;;86.75;39.97;;;;;;;-144.47;100.00;61586.06;4960917;28;20103;-79
2022/10/24 08:25:51;;;;;;;90.60;42.05;;;;;;;-144.47;100.00;61586.06;4978254;28;20035;-79
2022/10/24 08:28:17;;;;;;;81.32;38.42;;;;;;;-144.47;100.00;61586.06;4977893;28;20038;-79
2022/10/24 08:30:42;;;;;;;82.10;41.08;;;;;;;-144.47;100.00;61586.06;4978639;28;20030;-78
2022/10/24 08:33:08;;;;;;;87.65;40.72;;;;;;;-144.47;100.00;61586.06;4977571;28;20446;-78
2022/10/24 08:35:34;;;;;;;82.80;39.60;;;;;;;-144.47;100.00;61586.06;4978295;28;20031;-79
2022/10/24 08:38:00;;;;;;;89.45;41.30;;;;;;;-144.47;100.00;61586.06;4977877;28;20027;-79
2022/10/24 08:40:27;;;;;;;85.38;39.60;;;;;;;-144.47;100.00;61586.06;4964802;28;20041;-79
2022/10/24 08:42:52;;;;;;;89.65;42.15;;;;;;;-144.47;100.00;61586.06;4978167;28;20039;-78
2022/10/24 08:45:28;;;;;;;87.75;38.70;;;;;;;-144.47;100.00;61586.06;4977814;28;20089;-79
2022/10/24 08:47:59;;;;;;;82.05;40.60;;;;;;;-144.47;100.00;61586.06;4978210;28;20069;-78
2022/10/24 08:50:32;;;;;;;83.93;40.33;;;;;;;-144.47;100.00;61586.06;4952466;28;20039;-79
2022/10/24 08:53:06;;;;;;;85.85;40.13;;;;;;;-144.47;100.00;61586.06;4975723;28;20476;-79
2022/10/24 08:55:54;;;;;;;88.35;41.58;;;;;;;-144.47;100.00;61586.06;4977516;28;20130;-78
2022/10/24 08:58:29;;;;;;;95.88;41.08;;;;;;;-144.47;100.00;61586.06;4977703;28;20130;-77
2022/10/24 09:00:59;;;;;;;87.63;38.13;;;;;;;-144.47;100.00;61586.06;4978526;28;20059;-77
2022/10/24 09:03:38;;;;;;;89.00;42.10;;;;;;;-144.47;100.00;61586.06;4977600;28;20069;-78
2022/10/24 09:06:15;;;;;;;91.40;41.95;;;;;;;-144.47;100.00;61586.06;4974956;28;20034;-78
2022/10/24 09:09:01;;;;;;;98.35;43.60;;;;;;;-144.47;100.00;61586.06;4977730;28;20027;-79
2022/10/24 09:11:44;;;;;;;87.13;39.38;;;;;;;-144.47;100.00;61586.06;4973461;28;20054;-79
2022/10/24 09:14:12;;;;;;;89.68;41.08;;;;;;;-144.47;100.00;61586.06;4976968;28;20074;-79
2022/10/24 09:16:41;;;;;;;96.63;42.28;;;;;;;-144.47;100.00;61586.06;4978239;28;20050;-79
2022/10/24 09:19:14;;;;;;;94.35;40.33;;;;;;;-144.47;100.00;61586.06;4977442;28;20034;-79
2022/10/24 09:21:41;;;;;;;84.30;41.78;;;;;;;-144.47;100.00;61586.06;4977391;28;20054;-79
2022/10/24 09:24:23;;;;;;;91.85;40.65;;;;;;;-144.47;100.00;61586.06;4977478;28;20053;-77
2022/10/24 09:26:48;;;;;;;95.15;39.97;;;;;;;-144.47;100.00;61586.06;4977873;28;20121;-79
2022/10/24 09:29:14;;;;;;;82.18;37.65;;;;;;;-144.47;100.00;61586.06;4962258;28;20447;-79
2022/10/24 09:31:39;;;;;;;72.35;35.90;;;;;;;-144.47;100.00;61586.06;4974920;28;20030;-78
2022/10/24 09:34:05;;;;;;;70.55;36.10;;;;;;;-144.47;100.00;61586.06;4974751;28;20034;-79
2022/10/24 09:36:31;;;;;;;70.50;36.25;;;;;;;-144.47;100.00;61586.06;4973876;28;20074;-78
2022/10/24 09:39:30;;;;;;;67.53;35.20;;;;;;;-144.47;100.00;61586.06;4970636;28;20484;-77
2022/10/24 09:41:58;;;;;;;78.50;36.90;;;;;;;-144.47;100.00;61586.06;4974601;28;20023;-78
2022/10/24 09:44:37;;;;;;;68.22;34.88;;;;;;;-144.47;100.00;61586.06;4974235;28;20041;-78
2022/10/24 09:47:08;;;;;;;73.22;36.50;;;;;;;-144.47;100.00;61586.06;4974329;28;20114;-79
2022/10/24 09:49:40;;;;;;;70.60;36.25;;;;;;;-144.47;100.00;61586.06;4974629;28;20038;-79
2022/10/24 09:52:19;;;;;;;79.80;38.45;;;;;;;-144.47;100.00;61586.06;4973602;28;20030;-79
2022/10/24 09:54:46;;;;;;;67.68;34.75;;;;;;;-144.47;100.00;61586.06;4962157;28;20070;-78
2022/10/24 09:57:11;;;;;;;68.82;37.00;;;;;;;-144.47;100.00;61586.06;4974577;28;20061;-78
2022/10/24 09:59:43;;;;;;;62.53;33.35;;;;;;;-144.47;100.00;61586.06;4974378;28;20031;-78
2022/10/24 10:02:24;;;;;;;64.57;32.55;;;;;;;-144.47;100.00;61586.06;4961983;28;20033;-78
2022/10/24 10:05:02;;;;;;;48.42;29.65;;;;;;;-144.47;100.00;61586.06;4974325;28;20069;-79
2022/10/24 10:07:31;;;;;;;51.45;30.83;;;;;;;-144.47;100.00;61586.06;4956155;28;20018;-77
2022/10/24 10:10:02;;;;;;;47.83;30.67;;;;;;;-144.47;100.00;61586.06;4956714;28;20027;-77
2022/10/24 10:12:35;;;;;;;51.22;31.20;;;;;;;-144.47;100.00;61586.06;4972880;28;20531;-79
2022/10/24 10:15:16;;;;;;;52.28;30.95;;;;;;;-144.47;100.00;61586.06;4970886;28;20391;-76
2022/10/24 10:17:51;;;;;;;49.65;29.70;;;;;;;-144.47;100.00;61586.06;4972364;28;20035;-77
2022/10/24 10:20:42;;;;;;;52.50;30.27;;;;;;;-144.47;100.00;61586.06;4970416;28;20098;-77
2022/10/24 10:23:26;;;;;;;55.50;32.33;;;;;;;-144.47;100.00;61586.06;4966665;28;20134;-77
2022/10/24 10:26:28;;;;;;;56.00;32.10;;;;;;;-144.47;100.00;61586.06;4973026;28;20095;-77
2022/10/24 10:29:05;;;;;;;54.25;31.35;;;;;;;-144.47;100.00;61586.06;4973469;28;20045;-77
2022/10/24 10:31:39;;;;;;;55.67;31.95;;;;;;;-144.47;100.00;61586.06;4970030;28;20518;-76
2022/10/24 10:34:19;;;;;;;60.33;31.60;;;;;;;-144.47;100.00;61586.06;4970513;28;20498;-77
2022/10/24 10:37:03;;;;;;;49.10;31.05;;;;;;;-144.47;100.00;61586.06;4973504;28;20027;-78
2022/10/24 10:39:35;;;;;;;53.63;30.92;;;;;;;-144.47;100.00;61586.06;4971081;28;20065;-78
2022/10/24 10:42:22;;;;;;;57.28;30.73;;;;;;;-144.47;100.00;61586.06;4969652;28;20031;-77
2022/10/24 10:44:47;;;;;;;62.55;33.58;;;;;;;-144.47;100.00;61586.06;4972223;28;20027;-77
2022/10/24 10:47:38;;;;;;;52.60;33.10;;;;;;;-144.47;100.00;61586.06;4973092;28;20102;-77
2022/10/24 10:50:37;;;;;;;56.50;33.05;;;;;;;-144.47;100.00;61586.06;4970418;28;20396;-77
2022/10/24 10:53:33;;;;;;;59.42;33.72;;;;;;;-144.47;100.00;61586.06;4929828;28;20042;-77
2022/10/24 10:56:41;;;;;;;60.58;33.47;;;;;;;-144.47;100.00;61586.06;4969210;28;20086;-77
2022/10/24 10:59:32;;;;;;;63.08;34.55;;;;;;;-144.47;100.00;61586.06;4954544;28;20039;-76
2022/10/24 11:02:17;;;;;;;68.43;37.05;;;;;;;-144.47;100.00;61586.06;4969988;28;20349;-76
2022/10/24 11:04:56;;;;;;;70.82;38.38;;;;;;;-144.47;100.00;61586.06;4964166;28;20070;-77
2022/10/24 11:07:30;;;;;;;63.55;36.13;;;;;;;-144.47;100.00;61586.06;4972293;28;20478;-76